createdAt,value
2018-11-11T00:00:24.908Z,99.90
2018-11-11T00:01:28.600Z,99.90
2018-11-11T00:02:32.012Z,99.90
2018-11-11T00:03:35.442Z,99.90
2018-11-11T00:04:39.179Z,99.90
2018-11-11T00:05:42.569Z,99.90
2018-11-11T00:06:45.952Z,99.90
2018-11-11T00:07:49.363Z,99.90
2018-11-11T00:08:52.949Z,99.90
2018-11-11T00:09:56.340Z,99.90
2018-11-11T00:10:59.741Z,99.90
2018-11-11T00:12:03.126Z,99.90
2018-11-11T00:13:06.528Z,99.90
2018-11-11T00:14:09.913Z,99.90
2018-11-11T00:15:14.463Z,99.90
2018-11-11T00:16:17.844Z,99.90
2018-11-11T00:17:21.216Z,99.90
2018-11-11T00:18:24.709Z,99.90
2018-11-11T00:19:28.098Z,99.90
2018-11-11T00:20:31.513Z,99.90
2018-11-11T00:21:34.931Z,99.90
2018-11-11T00:22:38.664Z,99.90
2018-11-11T00:23:42.089Z,99.90
2018-11-11T00:24:45.452Z,99.90
2018-11-11T00:25:48.815Z,99.90
2018-11-11T00:26:58.929Z,99.90
2018-11-11T00:28:02.313Z,99.90
2018-11-11T00:29:06.300Z,99.90
2018-11-11T00:30:14.037Z,99.90
2018-11-11T00:31:17.416Z,99.90
2018-11-11T00:32:20.800Z,99.90
2018-11-11T00:33:24.208Z,99.90
2018-11-11T00:34:27.624Z,99.90
2018-11-11T00:35:30.979Z,99.90
2018-11-11T00:36:34.381Z,99.90
2018-11-11T00:37:38.048Z,99.90
2018-11-11T00:38:41.416Z,99.90
2018-11-11T00:39:44.919Z,99.90
2018-11-11T00:40:48.192Z,99.90
2018-11-11T00:41:51.590Z,99.90
2018-11-11T00:42:54.981Z,99.90
2018-11-11T00:43:58.364Z,99.90
2018-11-11T00:45:01.805Z,99.90
2018-11-11T00:46:05.441Z,99.90
2018-11-11T00:47:08.806Z,99.90
2018-11-11T00:48:12.176Z,99.90
2018-11-11T00:49:15.553Z,99.90
2018-11-11T00:50:18.978Z,99.90
2018-11-11T00:51:22.442Z,99.90
2018-11-11T00:52:25.811Z,99.90
2018-11-11T00:53:29.177Z,99.90
2018-11-11T00:54:32.564Z,99.90
2018-11-11T00:55:38.050Z,99.90
2018-11-11T00:56:41.419Z,99.90
2018-11-11T00:57:45.274Z,99.90
2018-11-11T00:58:48.631Z,99.90
2018-11-11T00:59:52.006Z,99.90
2018-11-11T01:00:55.418Z,99.90
2018-11-11T01:01:58.889Z,99.90
2018-11-11T01:03:02.281Z,99.90
2018-11-11T01:04:06.116Z,99.90
2018-11-11T01:05:10.388Z,99.90
2018-11-11T01:06:13.824Z,99.90
2018-11-11T01:07:17.272Z,99.90
2018-11-11T01:08:20.703Z,99.90
2018-11-11T01:09:24.059Z,99.90
2018-11-11T01:10:27.453Z,99.90
2018-11-11T01:11:30.971Z,99.90
2018-11-11T01:12:34.348Z,99.90
2018-11-11T01:13:37.864Z,99.90
2018-11-11T01:14:41.250Z,99.90
2018-11-11T01:15:44.624Z,99.90
2018-11-11T01:16:48.003Z,99.90
2018-11-11T01:17:51.489Z,99.90
2018-11-11T01:18:54.844Z,99.90
2018-11-11T01:19:58.215Z,99.90
2018-11-11T01:21:01.613Z,99.90
2018-11-11T01:22:05.008Z,99.90
2018-11-11T01:23:08.419Z,99.90
2018-11-11T01:24:11.960Z,99.90
2018-11-11T01:25:16.366Z,99.90
2018-11-11T01:26:19.762Z,99.90
2018-11-11T01:27:23.117Z,99.90
2018-11-11T01:28:26.488Z,99.90
2018-11-11T01:29:29.908Z,99.90
2018-11-11T01:30:33.276Z,99.90
2018-11-11T01:31:36.672Z,99.90
2018-11-11T01:32:40.165Z,99.90
2018-11-11T01:33:43.533Z,99.90
2018-11-11T01:34:46.921Z,99.90
2018-11-11T01:35:50.320Z,99.90
2018-11-11T01:36:53.700Z,99.90
2018-11-11T01:37:57.145Z,99.90
2018-11-11T01:39:00.520Z,99.90
2018-11-11T01:40:03.904Z,99.90
2018-11-11T01:41:07.276Z,99.90
2018-11-11T01:42:10.675Z,99.90
2018-11-11T01:43:14.112Z,99.90
2018-11-11T01:44:17.505Z,99.90
2018-11-11T01:45:20.863Z,99.90
2018-11-11T01:46:24.228Z,99.90
2018-11-11T01:47:27.606Z,99.90
2018-11-11T01:48:30.992Z,99.90
2018-11-11T01:49:34.395Z,99.90
2018-11-11T01:50:37.776Z,99.90
2018-11-11T01:51:41.131Z,99.90
2018-11-11T01:52:44.564Z,99.90
2018-11-11T01:53:47.951Z,99.90
2018-11-11T01:54:51.321Z,99.90
2018-11-11T01:55:54.742Z,99.80
2018-11-11T01:56:58.121Z,99.90
2018-11-11T01:58:01.538Z,99.80
2018-11-11T01:59:04.915Z,99.70
2018-11-11T02:00:11.775Z,99.60
2018-11-11T02:01:15.221Z,99.60
2018-11-11T02:02:18.609Z,99.60
2018-11-11T02:03:21.988Z,99.50
2018-11-11T02:04:25.355Z,99.50
2018-11-11T02:05:28.728Z,99.50
2018-11-11T02:06:32.116Z,99.60
2018-11-11T02:07:35.501Z,99.30
2018-11-11T02:08:38.906Z,99.40
2018-11-11T02:09:42.314Z,99.40
2018-11-11T02:10:45.652Z,99.30
2018-11-11T02:11:49.049Z,99.30
2018-11-11T02:12:52.453Z,99.30
2018-11-11T02:13:55.869Z,99.30
2018-11-11T02:14:59.224Z,99.40
2018-11-11T02:16:02.594Z,99.40
2018-11-11T02:17:06.021Z,99.30
2018-11-11T02:18:09.420Z,99.30
2018-11-11T02:19:12.802Z,99.30
2018-11-11T02:20:17.741Z,99.30
2018-11-11T02:21:21.120Z,99.30
2018-11-11T02:22:24.526Z,99.40
2018-11-11T02:23:27.912Z,99.40
2018-11-11T02:24:31.294Z,99.40
2018-11-11T02:25:34.744Z,99.40
2018-11-11T02:26:38.163Z,99.40
2018-11-11T02:27:41.537Z,99.40
2018-11-11T02:28:44.921Z,99.40
2018-11-11T02:29:48.373Z,99.40
2018-11-11T02:30:51.984Z,99.30
2018-11-11T02:31:55.380Z,99.40
2018-11-11T02:32:58.824Z,99.40
2018-11-11T02:34:02.213Z,99.30
2018-11-11T02:35:05.752Z,99.40
2018-11-11T02:36:09.212Z,99.60
2018-11-11T02:37:12.605Z,99.40
2018-11-11T02:38:16.178Z,99.40
2018-11-11T02:39:19.574Z,99.40
2018-11-11T02:40:22.984Z,99.30
2018-11-11T02:41:26.449Z,99.30
2018-11-11T02:42:29.865Z,99.40
2018-11-11T02:43:33.538Z,99.30
2018-11-11T02:44:36.928Z,99.30
2018-11-11T02:45:40.323Z,99.30
2018-11-11T02:46:43.729Z,99.40
2018-11-11T02:47:47.132Z,99.40
2018-11-11T02:48:50.552Z,99.40
2018-11-11T02:49:53.935Z,99.40
2018-11-11T02:50:57.356Z,99.40
2018-11-11T02:52:00.750Z,99.40
2018-11-11T02:53:04.137Z,99.30
2018-11-11T02:54:07.575Z,99.20
2018-11-11T02:55:11.653Z,99.20
2018-11-11T02:56:15.049Z,99.30
2018-11-11T02:57:18.528Z,99.20
2018-11-11T02:58:22.458Z,99.20
2018-11-11T02:59:25.851Z,99.10
2018-11-11T03:00:29.342Z,99.10
2018-11-11T03:01:32.717Z,99.00
2018-11-11T03:02:36.114Z,99.00
2018-11-11T03:03:39.488Z,99.00
2018-11-11T03:04:42.881Z,99.00
2018-11-11T03:05:46.283Z,98.90
2018-11-11T03:06:49.678Z,98.90
2018-11-11T03:07:53.035Z,98.80
2018-11-11T03:08:56.420Z,98.90
2018-11-11T03:09:59.826Z,98.90
2018-11-11T03:11:03.220Z,98.80
2018-11-11T03:12:06.604Z,98.80
2018-11-11T03:13:09.987Z,98.70
2018-11-11T03:14:13.358Z,98.70
2018-11-11T03:15:17.125Z,98.70
2018-11-11T03:16:20.560Z,98.70
2018-11-11T03:17:23.956Z,98.60
2018-11-11T03:19:37.083Z,98.70
2018-11-11T03:20:40.545Z,98.70
2018-11-11T03:21:43.937Z,98.70
2018-11-11T03:22:47.320Z,98.60
2018-11-11T03:23:50.709Z,98.60
2018-11-11T03:24:54.064Z,98.50
2018-11-11T03:25:57.465Z,98.50
2018-11-11T03:27:00.844Z,98.50
2018-11-11T03:28:04.242Z,98.40
2018-11-11T03:29:07.821Z,98.40
2018-11-11T03:30:12.794Z,98.50
2018-11-11T03:31:16.189Z,98.40
2018-11-11T03:32:19.876Z,98.40
2018-11-11T03:33:23.268Z,98.40
2018-11-11T03:34:26.733Z,98.40
2018-11-11T03:35:30.108Z,98.70
2018-11-11T03:36:33.527Z,98.40
2018-11-11T03:37:36.937Z,98.50
2018-11-11T03:38:40.331Z,98.50
2018-11-11T03:39:43.691Z,98.50
2018-11-11T03:40:47.117Z,98.50
2018-11-11T03:41:50.510Z,98.60
2018-11-11T03:42:53.903Z,98.50
2018-11-11T03:43:57.301Z,98.60
2018-11-11T03:45:00.671Z,98.50
2018-11-11T03:46:04.061Z,98.50
2018-11-11T03:47:07.468Z,98.50
2018-11-11T03:48:10.937Z,98.50
2018-11-11T03:49:14.316Z,98.60
2018-11-11T03:50:17.727Z,98.60
2018-11-11T03:51:21.113Z,98.60
2018-11-11T03:52:24.510Z,98.70
2018-11-11T03:53:27.953Z,98.50
2018-11-11T03:54:31.369Z,98.50
2018-11-11T03:55:34.739Z,98.60
2018-11-11T03:56:38.488Z,98.50
2018-11-11T03:57:41.969Z,98.50
2018-11-11T03:58:45.369Z,98.50
2018-11-11T03:59:48.682Z,98.60
2018-11-11T04:00:52.053Z,98.60
2018-11-11T04:01:55.436Z,98.50
2018-11-11T04:02:58.808Z,98.50
2018-11-11T04:04:02.208Z,98.50
2018-11-11T04:05:06.312Z,98.40
2018-11-11T04:06:09.708Z,98.40
2018-11-11T04:07:13.095Z,98.70
2018-11-11T04:08:16.453Z,98.50
2018-11-11T04:09:19.833Z,98.50
2018-11-11T04:10:23.222Z,98.70
2018-11-11T04:11:26.597Z,98.50
2018-11-11T04:12:29.988Z,98.50
2018-11-11T04:13:33.349Z,98.50
2018-11-11T04:14:36.723Z,98.40
2018-11-11T04:15:40.128Z,98.50
2018-11-11T04:16:43.534Z,98.40
2018-11-11T04:17:47.295Z,98.40
2018-11-11T04:18:50.704Z,98.30
2018-11-11T04:19:54.055Z,98.30
2018-11-11T04:20:57.548Z,98.30
2018-11-11T04:22:05.173Z,98.30
2018-11-11T04:23:08.532Z,98.30
2018-11-11T04:24:11.957Z,98.20
2018-11-11T04:25:16.110Z,98.30
2018-11-11T04:26:19.557Z,98.30
2018-11-11T04:27:22.969Z,98.30
2018-11-11T04:28:26.348Z,98.30
2018-11-11T04:29:29.704Z,98.30
2018-11-11T04:30:33.107Z,98.40
2018-11-11T04:31:36.487Z,98.40
2018-11-11T04:32:40.144Z,98.30
2018-11-11T04:33:43.666Z,98.40
2018-11-11T04:34:47.033Z,98.30
2018-11-11T04:35:50.413Z,98.30
2018-11-11T04:36:53.795Z,98.20
2018-11-11T04:37:57.185Z,98.30
2018-11-11T04:39:00.551Z,98.20
2018-11-11T04:40:04.368Z,98.20
2018-11-11T04:41:07.763Z,98.20
2018-11-11T04:42:11.152Z,98.00
2018-11-11T04:43:14.596Z,98.10
2018-11-11T04:44:17.988Z,98.20
2018-11-11T04:45:21.388Z,98.10
2018-11-11T04:46:25.045Z,98.10
2018-11-11T04:47:28.376Z,98.00
2018-11-11T04:48:31.780Z,98.00
2018-11-11T04:49:35.216Z,98.00
2018-11-11T04:50:38.712Z,98.00
2018-11-11T04:51:42.096Z,97.90
2018-11-11T04:52:46.178Z,98.00
2018-11-11T04:53:49.580Z,97.90
2018-11-11T04:54:52.952Z,97.90
2018-11-11T04:55:56.329Z,97.90
2018-11-11T04:56:59.709Z,97.80
2018-11-11T04:58:03.086Z,97.80
2018-11-11T04:59:06.825Z,97.80
2018-11-11T05:00:11.728Z,97.80
2018-11-11T05:01:15.177Z,97.80
2018-11-11T05:02:18.535Z,97.80
2018-11-11T05:03:21.899Z,97.80
2018-11-11T05:04:25.312Z,97.80
2018-11-11T05:05:28.768Z,97.60
2018-11-11T05:06:32.170Z,97.60
2018-11-11T05:07:35.560Z,97.60
2018-11-11T05:08:38.969Z,97.60
2018-11-11T05:09:42.458Z,97.50
2018-11-11T05:10:45.879Z,97.30
2018-11-11T05:11:49.344Z,97.30
2018-11-11T05:12:52.728Z,97.20
2018-11-11T05:13:56.096Z,97.20
2018-11-11T05:14:59.477Z,97.10
2018-11-11T05:16:02.921Z,97.10
2018-11-11T05:17:06.310Z,97.10
2018-11-11T05:18:09.695Z,97.10
2018-11-11T05:19:13.060Z,97.10
2018-11-11T05:20:16.458Z,97.10
2018-11-11T05:21:19.941Z,97.00
2018-11-11T05:22:23.352Z,97.10
2018-11-11T05:23:26.710Z,97.10
2018-11-11T05:24:30.072Z,97.10
2018-11-11T05:25:33.465Z,97.10
2018-11-11T05:26:36.850Z,97.10
2018-11-11T05:27:40.297Z,97.10
2018-11-11T05:28:43.673Z,97.00
2018-11-11T05:29:47.060Z,97.00
2018-11-11T05:30:50.539Z,96.90
2018-11-11T05:31:53.863Z,96.90
2018-11-11T05:32:57.245Z,96.80
2018-11-11T05:34:00.648Z,96.90
2018-11-11T05:35:05.310Z,96.80
2018-11-11T05:36:08.680Z,96.80
2018-11-11T05:37:12.080Z,96.80
2018-11-11T05:38:15.465Z,96.80
2018-11-11T05:39:18.839Z,96.90
2018-11-11T05:40:22.232Z,96.80
2018-11-11T05:41:25.612Z,96.80
2018-11-11T05:42:29.001Z,96.70
2018-11-11T05:43:32.380Z,96.80
2018-11-11T05:44:35.781Z,96.70
2018-11-11T05:45:39.179Z,96.70
2018-11-11T05:46:42.573Z,96.70
2018-11-11T05:47:45.943Z,96.70
2018-11-11T05:48:49.356Z,96.70
2018-11-11T05:49:52.736Z,96.60
2018-11-11T05:50:56.096Z,96.60
2018-11-11T05:51:59.460Z,96.50
2018-11-11T05:53:02.851Z,96.50
2018-11-11T05:54:06.216Z,96.50
2018-11-11T05:55:09.961Z,96.50
2018-11-11T05:56:13.336Z,96.50
2018-11-11T05:57:16.700Z,96.50
2018-11-11T05:58:20.083Z,96.50
2018-11-11T05:59:23.504Z,96.50
2018-11-11T06:00:26.924Z,96.50
2018-11-11T06:01:30.352Z,96.40
2018-11-11T06:02:33.724Z,96.40
2018-11-11T06:03:37.094Z,96.40
2018-11-11T06:04:40.488Z,96.40
2018-11-11T06:05:43.883Z,96.30
2018-11-11T06:06:47.253Z,96.30
2018-11-11T06:07:50.728Z,96.30
2018-11-11T06:08:54.100Z,96.20
2018-11-11T06:09:57.488Z,96.20
2018-11-11T06:11:00.856Z,96.20
2018-11-11T06:12:04.231Z,96.10
2018-11-11T06:13:07.596Z,96.20
2018-11-11T06:14:11.020Z,96.20
2018-11-11T06:15:14.905Z,96.20
2018-11-11T06:16:18.275Z,96.20
2018-11-11T06:17:21.673Z,96.20
2018-11-11T06:18:25.051Z,96.20
2018-11-11T06:19:28.443Z,96.20
2018-11-11T06:20:32.496Z,96.20
2018-11-11T06:21:36.016Z,96.20
2018-11-11T06:22:39.384Z,96.20
2018-11-11T06:23:42.799Z,96.20
2018-11-11T06:24:46.295Z,96.20
2018-11-11T06:25:49.689Z,96.20
2018-11-11T06:26:53.206Z,96.20
2018-11-11T06:27:56.704Z,96.10
2018-11-11T06:29:00.072Z,96.20
2018-11-11T06:30:03.612Z,96.20
2018-11-11T06:31:06.997Z,96.30
2018-11-11T06:32:10.394Z,96.30
2018-11-11T06:33:13.768Z,96.30
2018-11-11T06:34:17.334Z,96.40
2018-11-11T06:35:20.683Z,96.40
2018-11-11T06:36:24.072Z,96.40
2018-11-11T06:37:27.440Z,96.40
2018-11-11T06:38:30.804Z,96.40
2018-11-11T06:39:34.180Z,96.40
2018-11-11T06:40:37.701Z,96.50
2018-11-11T06:41:41.099Z,96.50
2018-11-11T06:42:44.488Z,96.50
2018-11-11T06:43:47.876Z,96.60
2018-11-11T06:44:51.261Z,96.60
2018-11-11T06:45:54.849Z,96.60
2018-11-11T06:46:58.254Z,96.60
2018-11-11T06:48:01.632Z,96.60
2018-11-11T06:49:05.190Z,96.70
2018-11-11T06:50:09.528Z,96.70
2018-11-11T06:51:12.907Z,96.70
2018-11-11T06:52:16.294Z,96.90
2018-11-11T06:53:19.788Z,96.70
2018-11-11T06:54:23.204Z,96.70
2018-11-11T06:55:26.632Z,96.70
2018-11-11T06:56:30.001Z,96.70
2018-11-11T06:57:33.429Z,96.60
2018-11-11T06:58:36.803Z,96.60
2018-11-11T06:59:40.256Z,96.70
2018-11-11T07:00:43.646Z,96.60
2018-11-11T07:01:47.024Z,96.60
2018-11-11T07:03:01.695Z,96.60
2018-11-11T07:04:05.287Z,96.50
2018-11-11T07:05:09.523Z,96.50
2018-11-11T07:06:12.886Z,96.50
2018-11-11T07:07:16.284Z,96.40
2018-11-11T07:08:19.643Z,96.40
2018-11-11T07:09:23.090Z,96.20
2018-11-11T07:10:26.487Z,96.10
2018-11-11T07:11:29.892Z,96.10
2018-11-11T07:12:33.341Z,96.10
2018-11-11T07:13:36.692Z,96.00
2018-11-11T07:14:40.083Z,96.00
2018-11-11T07:15:43.501Z,96.00
2018-11-11T07:16:46.911Z,95.90
2018-11-11T07:17:50.281Z,96.00
2018-11-11T07:18:53.645Z,95.90
2018-11-11T07:19:57.135Z,95.90
2018-11-11T07:21:00.505Z,96.10
2018-11-11T07:22:03.882Z,95.80
2018-11-11T07:23:07.465Z,95.70
2018-11-11T07:24:10.884Z,95.70
2018-11-11T07:25:14.275Z,95.70
2018-11-11T07:26:17.716Z,95.60
2018-11-11T07:27:21.105Z,95.70
2018-11-11T07:28:24.799Z,95.70
2018-11-11T07:29:28.492Z,95.70
2018-11-11T07:30:32.010Z,95.50
2018-11-11T07:31:35.367Z,95.30
2018-11-11T07:32:38.734Z,95.30
2018-11-11T07:33:42.178Z,95.30
2018-11-11T07:34:46.164Z,95.30
2018-11-11T07:35:55.967Z,95.30
2018-11-11T07:36:59.474Z,95.20
2018-11-11T07:38:02.837Z,95.30
2018-11-11T07:39:09.908Z,95.30
2018-11-11T07:40:14.747Z,95.30
2018-11-11T07:41:18.133Z,95.20
2018-11-11T07:42:21.576Z,95.30
2018-11-11T07:43:24.916Z,95.30
2018-11-11T07:44:28.301Z,95.30
2018-11-11T07:45:31.709Z,95.30
2018-11-11T07:46:35.133Z,95.30
2018-11-11T07:47:38.530Z,95.30
2018-11-11T07:48:41.936Z,95.30
2018-11-11T07:49:45.327Z,95.30
2018-11-11T07:50:48.740Z,95.30
2018-11-11T07:51:52.144Z,95.30
2018-11-11T07:52:55.495Z,95.60
2018-11-11T07:53:58.889Z,95.30
2018-11-11T07:55:02.370Z,95.30
2018-11-11T07:56:05.717Z,95.40
2018-11-11T07:57:09.321Z,95.30
2018-11-11T07:58:12.714Z,95.20
2018-11-11T07:59:16.116Z,95.20
2018-11-11T08:00:19.506Z,95.20
2018-11-11T08:01:22.925Z,95.10
2018-11-11T08:02:26.344Z,94.80
2018-11-11T08:03:29.740Z,95.10
2018-11-11T08:04:33.144Z,95.10
2018-11-11T08:05:36.595Z,95.10
2018-11-11T08:06:39.972Z,95.10
2018-11-11T08:07:43.356Z,95.10
2018-11-11T08:08:46.726Z,95.10
2018-11-11T08:09:50.112Z,95.10
2018-11-11T08:11:04.876Z,95.10
2018-11-11T08:12:08.453Z,95.10
2018-11-11T08:13:11.956Z,95.10
2018-11-11T08:14:15.365Z,95.10
2018-11-11T08:15:18.809Z,95.10
2018-11-11T08:16:22.216Z,95.10
2018-11-11T08:17:25.608Z,95.20
2018-11-11T08:18:29.009Z,95.20
2018-11-11T08:19:32.426Z,95.20
2018-11-11T08:20:35.965Z,95.30
2018-11-11T08:21:39.386Z,95.30
2018-11-11T08:22:42.760Z,95.20
2018-11-11T08:23:46.151Z,95.20
2018-11-11T08:24:49.820Z,95.30
2018-11-11T08:25:53.419Z,95.30
2018-11-11T08:26:57.336Z,95.30
2018-11-11T08:28:00.768Z,95.30
2018-11-11T08:29:04.144Z,95.30
2018-11-11T08:30:08.620Z,95.20
2018-11-11T08:31:12.204Z,95.30
2018-11-11T08:32:15.725Z,95.30
2018-11-11T08:33:19.082Z,95.20
2018-11-11T08:34:22.457Z,95.20
2018-11-11T08:35:25.979Z,95.20
2018-11-11T08:36:29.385Z,95.20
2018-11-11T08:37:32.758Z,95.20
2018-11-11T08:38:36.241Z,95.20
2018-11-11T08:39:39.638Z,95.10
2018-11-11T08:40:43.094Z,95.10
2018-11-11T08:41:46.840Z,95.00
2018-11-11T08:42:50.208Z,95.00
2018-11-11T08:43:53.656Z,95.00
2018-11-11T08:44:57.143Z,95.00
2018-11-11T08:46:00.690Z,95.00
2018-11-11T08:47:04.172Z,95.00
2018-11-11T08:48:07.628Z,95.10
2018-11-11T08:49:12.223Z,95.10
2018-11-11T08:50:15.698Z,95.10
2018-11-11T08:51:19.499Z,95.10
2018-11-11T08:52:22.935Z,95.10
2018-11-11T08:53:26.368Z,95.20
2018-11-11T08:54:29.747Z,95.20
2018-11-11T08:55:33.140Z,95.30
2018-11-11T08:56:36.537Z,95.20
2018-11-11T08:57:39.949Z,95.20
2018-11-11T08:58:43.379Z,95.20
2018-11-11T08:59:46.757Z,95.20
2018-11-11T09:00:50.168Z,95.20
2018-11-11T09:01:53.544Z,95.20
2018-11-11T09:02:56.904Z,95.30
2018-11-11T09:04:00.297Z,95.30
2018-11-11T09:05:03.716Z,95.20
2018-11-11T09:06:07.094Z,95.20
2018-11-11T09:07:10.459Z,95.20
2018-11-11T09:08:13.833Z,95.20
2018-11-11T09:09:17.221Z,95.10
2018-11-11T09:10:20.737Z,95.10
2018-11-11T09:11:24.169Z,95.00
2018-11-11T09:12:27.538Z,94.90
2018-11-11T09:13:30.897Z,94.70
2018-11-11T09:14:34.295Z,94.60
2018-11-11T09:15:37.707Z,94.60
2018-11-11T09:16:41.092Z,94.70
2018-11-11T09:17:44.789Z,94.60
2018-11-11T09:18:48.664Z,94.50
2018-11-11T09:19:52.024Z,94.40
2018-11-11T09:20:55.464Z,94.50
2018-11-11T09:21:58.829Z,94.40
2018-11-11T09:23:02.226Z,94.40
2018-11-11T09:24:05.900Z,94.30
2018-11-11T09:25:09.997Z,94.30
2018-11-11T09:26:13.408Z,94.30
2018-11-11T09:27:16.780Z,94.30
2018-11-11T09:28:20.283Z,94.40
2018-11-11T09:29:23.687Z,94.30
2018-11-11T09:30:27.174Z,94.30
2018-11-11T09:31:30.491Z,94.60
2018-11-11T09:32:33.881Z,94.40
2018-11-11T09:33:37.311Z,94.40
2018-11-11T09:34:40.692Z,94.30
2018-11-11T09:35:44.076Z,94.40
2018-11-11T09:36:47.528Z,94.00
2018-11-11T09:37:50.896Z,93.90
2018-11-11T09:38:54.270Z,93.80
2018-11-11T09:39:57.652Z,93.70
2018-11-11T09:41:01.016Z,93.50
2018-11-11T09:42:04.637Z,93.30
2018-11-11T09:43:07.995Z,93.00
2018-11-11T09:44:11.401Z,92.90
2018-11-11T09:45:15.663Z,92.70
2018-11-11T09:46:19.120Z,92.50
2018-11-11T09:47:22.496Z,92.50
2018-11-11T09:48:25.880Z,92.40
2018-11-11T09:49:29.289Z,92.50
2018-11-11T09:50:32.796Z,92.40
2018-11-11T09:51:36.165Z,92.30
2018-11-11T09:52:39.876Z,92.10
2018-11-11T09:53:43.204Z,92.10
2018-11-11T09:54:46.717Z,92.10
2018-11-11T09:55:50.129Z,92.20
2018-11-11T09:56:53.496Z,92.40
2018-11-11T09:57:57.099Z,92.10
2018-11-11T09:59:00.519Z,92.10
2018-11-11T10:00:03.900Z,91.90
2018-11-11T10:01:07.490Z,91.80
2018-11-11T10:02:11.105Z,91.80
2018-11-11T10:03:19.948Z,91.80
2018-11-11T10:04:26.653Z,91.80
2018-11-11T10:05:42.053Z,91.90
2018-11-11T10:06:52.621Z,91.90
2018-11-11T10:10:04.952Z,91.90
2018-11-11T10:13:18.740Z,92.00
2018-11-11T10:16:35.760Z,91.40
2018-11-11T10:18:46.364Z,91.10
2018-11-11T10:19:55.564Z,90.90
2018-11-11T10:21:09.176Z,91.00
2018-11-11T10:24:21.018Z,91.10
2018-11-11T10:25:28.151Z,91.00
2018-11-11T10:26:35.726Z,90.90
2018-11-11T10:28:41.892Z,90.90
2018-11-11T10:29:53.836Z,91.20
2018-11-11T10:31:32.601Z,91.00
2018-11-11T10:32:51.583Z,91.00
2018-11-11T10:34:02.196Z,90.90
2018-11-11T10:35:15.999Z,91.00
2018-11-11T10:36:38.170Z,91.00
2018-11-11T10:37:44.911Z,91.00
2018-11-11T10:38:52.413Z,91.00
2018-11-11T10:40:02.596Z,90.90
2018-11-11T10:41:10.194Z,90.80
2018-11-11T10:42:20.281Z,90.70
2018-11-11T10:43:29.016Z,90.70
2018-11-11T10:44:45.301Z,90.80
2018-11-11T10:46:05.669Z,90.90
2018-11-11T10:47:15.002Z,90.90
2018-11-11T10:48:22.057Z,91.00
2018-11-11T10:49:30.469Z,91.00
2018-11-11T10:50:41.024Z,91.00
2018-11-11T10:51:44.595Z,91.10
2018-11-11T10:52:48.062Z,91.20
2018-11-11T10:53:51.430Z,91.20
2018-11-11T10:54:55.021Z,91.20
2018-11-11T10:55:58.488Z,91.10
2018-11-11T10:57:01.909Z,91.10
2018-11-11T10:58:05.512Z,91.40
2018-11-11T10:59:09.081Z,91.10
2018-11-11T11:00:17.998Z,91.00
2018-11-11T11:01:31.053Z,91.00
2018-11-11T11:02:39.740Z,90.90
2018-11-11T11:03:43.126Z,90.90
2018-11-11T11:04:52.219Z,90.90
2018-11-11T11:05:55.660Z,90.80
2018-11-11T11:07:04.532Z,90.90
2018-11-11T11:08:07.981Z,90.80
2018-11-11T11:09:13.657Z,90.80
2018-11-11T11:10:17.046Z,90.80
2018-11-11T11:11:20.441Z,90.80
2018-11-11T11:12:23.864Z,90.80
2018-11-11T11:13:28.081Z,90.80
2018-11-11T11:14:31.370Z,90.80
2018-11-11T11:15:34.747Z,90.90
2018-11-11T11:16:38.184Z,90.80
2018-11-11T11:17:41.611Z,90.80
2018-11-11T11:18:45.000Z,90.70
2018-11-11T11:19:48.361Z,90.80
2018-11-11T11:20:51.741Z,90.70
2018-11-11T11:21:55.117Z,90.80
2018-11-11T11:22:58.507Z,90.80
2018-11-11T11:24:01.945Z,90.90
2018-11-11T11:25:06.296Z,90.80
2018-11-11T11:26:09.680Z,90.80
2018-11-11T11:27:13.192Z,90.80
2018-11-11T11:28:16.494Z,90.80
2018-11-11T11:29:19.883Z,90.80
2018-11-11T11:30:23.257Z,90.80
2018-11-11T11:31:26.939Z,90.90
2018-11-11T11:32:30.285Z,90.90
2018-11-11T11:33:33.685Z,90.90
2018-11-11T11:34:37.119Z,90.90
2018-11-11T11:35:40.582Z,90.90
2018-11-11T11:36:43.946Z,90.90
2018-11-11T11:37:47.304Z,90.90
2018-11-11T11:38:51.030Z,90.90
2018-11-11T11:39:54.445Z,90.90
2018-11-11T11:40:57.836Z,90.80
2018-11-11T11:42:01.233Z,91.00
2018-11-11T11:43:04.732Z,90.60
2018-11-11T11:44:08.299Z,90.60
2018-11-11T11:45:12.377Z,90.50
2018-11-11T11:46:15.771Z,90.50
2018-11-11T11:47:19.296Z,90.40
2018-11-11T11:48:22.642Z,90.40
2018-11-11T11:49:26.044Z,90.40
2018-11-11T11:50:29.775Z,90.40
2018-11-11T11:51:33.116Z,90.10
2018-11-11T11:52:36.574Z,90.30
2018-11-11T11:53:40.004Z,90.30
2018-11-11T11:54:43.376Z,90.20
2018-11-11T11:55:46.756Z,90.40
2018-11-11T11:56:50.182Z,90.40
2018-11-11T11:58:08.025Z,90.00
2018-11-11T11:59:11.337Z,90.00
2018-11-11T12:00:14.709Z,90.00
2018-11-11T12:01:18.145Z,90.00
2018-11-11T12:02:21.610Z,90.00
2018-11-11T12:03:24.956Z,90.00
2018-11-11T12:04:28.343Z,89.90
2018-11-11T12:05:31.716Z,89.70
2018-11-11T12:06:35.162Z,89.50
2018-11-11T12:07:38.568Z,89.40
2018-11-11T12:08:41.983Z,90.00
2018-11-11T12:09:45.376Z,89.50
2018-11-11T12:10:48.855Z,89.30
2018-11-11T12:11:52.257Z,89.30
2018-11-11T12:12:55.631Z,89.20
2018-11-11T12:13:59.025Z,89.30
2018-11-11T12:15:02.396Z,89.30
2018-11-11T12:16:06.017Z,89.40
2018-11-11T12:17:09.419Z,89.30
2018-11-11T12:18:12.837Z,89.40
2018-11-11T12:19:16.216Z,89.60
2018-11-11T12:20:19.890Z,89.60
2018-11-11T12:21:23.337Z,89.80
2018-11-11T12:22:26.992Z,90.00
2018-11-11T12:23:30.413Z,90.00
2018-11-11T12:24:33.817Z,90.10
2018-11-11T12:25:38.201Z,90.10
2018-11-11T12:26:41.597Z,90.10
2018-11-11T12:27:45.005Z,90.10
2018-11-11T12:28:48.408Z,90.20
2018-11-11T12:29:51.809Z,90.10
2018-11-11T12:30:55.311Z,90.20
2018-11-11T12:31:58.600Z,90.20
2018-11-11T12:33:02.135Z,90.20
2018-11-11T12:34:06.133Z,90.20
2018-11-11T12:35:09.565Z,90.30
2018-11-11T12:36:12.944Z,90.30
2018-11-11T12:37:16.355Z,90.30
2018-11-11T12:38:19.723Z,90.30
2018-11-11T12:39:23.156Z,90.30
2018-11-11T12:40:26.532Z,90.40
2018-11-11T12:41:30.012Z,90.40
2018-11-11T12:42:33.431Z,90.40
2018-11-11T12:43:36.807Z,90.40
2018-11-11T12:44:40.271Z,90.40
2018-11-11T12:45:43.673Z,90.30
2018-11-11T12:46:47.231Z,90.50
2018-11-11T12:47:50.612Z,90.40
2018-11-11T12:48:53.997Z,90.40
2018-11-11T12:49:57.372Z,90.40
2018-11-11T12:51:00.778Z,90.50
2018-11-11T12:52:04.481Z,90.60
2018-11-11T12:53:07.844Z,90.60
2018-11-11T12:54:11.210Z,90.60
2018-11-11T12:55:14.631Z,90.60
2018-11-11T12:56:17.961Z,90.60
2018-11-11T12:57:21.397Z,90.60
2018-11-11T12:58:24.772Z,90.60
2018-11-11T12:59:28.176Z,90.70
2018-11-11T13:00:31.548Z,90.80
2018-11-11T13:01:34.942Z,90.80
2018-11-11T13:02:38.354Z,90.80
2018-11-11T13:03:41.852Z,90.80
2018-11-11T13:04:45.685Z,90.80
2018-11-11T13:05:49.555Z,90.80
2018-11-11T13:06:52.969Z,90.80
2018-11-11T13:07:56.382Z,90.80
2018-11-11T13:08:59.726Z,90.80
2018-11-11T13:10:04.160Z,90.80
2018-11-11T13:11:07.528Z,90.80
2018-11-11T13:12:11.087Z,90.80
2018-11-11T13:13:14.317Z,90.80
2018-11-11T13:14:17.708Z,90.80
2018-11-11T13:15:21.100Z,90.80
2018-11-11T13:16:24.513Z,90.90
2018-11-11T13:17:27.940Z,90.90
2018-11-11T13:18:31.559Z,91.00
2018-11-11T13:19:35.012Z,91.00
2018-11-11T13:20:38.337Z,91.10
2018-11-11T13:21:41.733Z,91.10
2018-11-11T13:22:45.222Z,91.10
2018-11-11T13:23:48.564Z,91.10
2018-11-11T13:24:52.101Z,91.10
2018-11-11T13:25:55.478Z,91.20
2018-11-11T13:26:58.857Z,91.30
2018-11-11T13:28:02.233Z,91.50
2018-11-11T13:29:05.624Z,91.60
2018-11-11T13:30:11.435Z,91.90
2018-11-11T13:31:14.832Z,91.90
2018-11-11T13:32:18.995Z,92.10
2018-11-11T13:33:22.499Z,92.20
2018-11-11T13:34:25.887Z,92.30
2018-11-11T13:35:29.274Z,92.30
2018-11-11T13:36:32.636Z,92.60
2018-11-11T13:37:36.119Z,92.80
2018-11-11T13:38:39.563Z,92.90
2018-11-11T13:39:42.884Z,93.00
2018-11-11T13:40:46.289Z,93.10
2018-11-11T13:41:49.659Z,93.30
2018-11-11T13:42:53.074Z,93.50
2018-11-11T13:43:56.496Z,93.70
2018-11-11T13:44:59.859Z,93.80
2018-11-11T13:46:03.254Z,94.00
2018-11-11T13:47:06.617Z,94.10
2018-11-11T13:48:10.086Z,94.40
2018-11-11T13:49:13.553Z,94.50
2018-11-11T13:50:18.237Z,94.70
2018-11-11T13:51:21.579Z,94.90
2018-11-11T13:52:25.055Z,95.20
2018-11-11T13:53:28.389Z,95.40
2018-11-11T13:54:31.759Z,95.60